createdAt,value
2022-08-27T00:00:00.573Z,5.85
2022-08-27T00:02:53.181Z,5.75
2022-08-27T00:05:23.146Z,5.10
2022-08-27T00:07:51.825Z,5.30
2022-08-27T00:10:25.563Z,5.97
2022-08-27T00:12:56.900Z,5.90
2022-08-27T00:15:27.781Z,5.75
2022-08-27T00:17:57.988Z,6.32
2022-08-27T00:20:27.379Z,6.13
2022-08-27T00:22:56.392Z,5.60
2022-08-27T00:25:25.140Z,5.65
2022-08-27T00:27:53.953Z,5.72
2022-08-27T00:30:23.566Z,5.70
2022-08-27T00:32:52.229Z,5.80
2022-08-27T00:35:20.681Z,7.90
2022-08-27T00:37:50.501Z,8.25
2022-08-27T00:40:23.568Z,6.95
2022-08-27T00:42:52.064Z,7.22
2022-08-27T00:45:22.409Z,6.85
2022-08-27T00:47:54.576Z,5.75
2022-08-27T00:50:30.052Z,5.90
2022-08-27T00:53:02.759Z,6.40
2022-08-27T00:55:48.015Z,6.32
2022-08-27T00:58:25.899Z,6.00
2022-08-27T01:00:54.737Z,5.85
2022-08-27T01:03:26.237Z,6.00
2022-08-27T01:05:57.344Z,6.28
2022-08-27T01:08:29.632Z,6.07
2022-08-27T01:10:59.747Z,5.80
2022-08-27T01:13:58.759Z,6.00
2022-08-27T01:16:28.133Z,5.82
2022-08-27T01:19:02.098Z,6.70
2022-08-27T01:21:56.034Z,6.22
2022-08-27T01:24:42.672Z,7.30
2022-08-27T01:27:19.414Z,6.10
2022-08-27T01:29:48.298Z,6.07
2022-08-27T01:32:24.099Z,6.53
2022-08-27T01:34:53.577Z,6.20
2022-08-27T01:37:24.052Z,8.07
2022-08-27T01:39:55.783Z,6.88
2022-08-27T01:42:32.776Z,6.88
2022-08-27T01:45:06.067Z,7.00
2022-08-27T01:47:36.688Z,7.13
2022-08-27T01:50:15.323Z,7.47
2022-08-27T01:52:45.060Z,7.03
2022-08-27T01:55:17.017Z,7.47
2022-08-27T01:57:46.360Z,16.23
2022-08-27T02:00:20.016Z,10.13
2022-08-27T02:02:48.395Z,8.45
2022-08-27T02:05:17.678Z,7.53
2022-08-27T02:07:46.718Z,7.15
2022-08-27T02:10:19.760Z,7.43
2022-08-27T02:12:48.175Z,7.38
2022-08-27T02:15:17.048Z,6.88
2022-08-27T02:17:45.239Z,7.00
2022-08-27T02:20:15.766Z,7.00
2022-08-27T02:22:45.269Z,6.55
2022-08-27T02:25:15.382Z,6.40
2022-08-27T02:27:44.351Z,6.70
2022-08-27T02:30:14.960Z,7.00
2022-08-27T02:32:43.667Z,6.97
2022-08-27T02:35:11.996Z,6.70
2022-08-27T02:37:40.052Z,7.53
2022-08-27T02:40:09.894Z,7.57
2022-08-27T02:42:38.918Z,7.68
2022-08-27T02:45:08.308Z,6.85
2022-08-27T02:47:36.721Z,6.70
2022-08-27T02:50:05.751Z,7.75
2022-08-27T02:52:52.761Z,6.78
2022-08-27T02:55:22.865Z,14.15
2022-08-27T02:57:51.109Z,6.95
2022-08-27T03:00:21.052Z,7.40
2022-08-27T03:02:50.118Z,7.80
2022-08-27T03:05:19.397Z,6.90
2022-08-27T03:07:49.883Z,7.18
2022-08-27T03:10:25.819Z,7.45
2022-08-27T03:12:54.262Z,7.80
2022-08-27T03:15:25.291Z,7.32
2022-08-27T03:18:12.290Z,7.65
2022-08-27T03:20:43.435Z,7.47
2022-08-27T03:23:12.847Z,7.97
2022-08-27T03:25:45.819Z,7.65
2022-08-27T03:28:23.823Z,7.28
2022-08-27T03:31:01.527Z,6.93
2022-08-27T03:33:33.046Z,7.90
2022-08-27T03:36:03.996Z,6.90
2022-08-27T03:38:33.154Z,8.43
2022-08-27T03:41:03.175Z,7.30
2022-08-27T03:43:32.877Z,7.97
2022-08-27T03:46:02.499Z,7.90
2022-08-27T03:48:32.479Z,7.97
2022-08-27T03:51:07.312Z,7.40
2022-08-27T03:53:37.249Z,7.55
2022-08-27T03:56:06.590Z,7.95
2022-08-27T03:58:36.609Z,7.22
2022-08-27T04:01:06.574Z,7.45
2022-08-27T04:03:36.653Z,9.00
2022-08-27T04:06:06.138Z,7.70
2022-08-27T04:08:36.288Z,7.57
2022-08-27T04:11:08.177Z,8.10
2022-08-27T04:13:37.230Z,7.53
2022-08-27T04:16:06.201Z,7.20
2022-08-27T04:18:35.077Z,7.57
2022-08-27T04:21:13.834Z,7.68
2022-08-27T04:23:42.804Z,7.95
2022-08-27T04:26:11.859Z,7.30
2022-08-27T04:28:40.148Z,7.30
2022-08-27T04:31:13.115Z,7.22
2022-08-27T04:33:51.346Z,8.93
2022-08-27T04:36:21.092Z,10.50
2022-08-27T04:38:49.614Z,9.38
2022-08-27T04:41:21.758Z,7.00
2022-08-27T04:44:06.506Z,6.47
2022-08-27T04:46:38.585Z,7.37
2022-08-27T04:49:10.714Z,6.93
2022-08-27T04:51:40.796Z,7.90
2022-08-27T04:54:11.378Z,6.78
2022-08-27T04:56:39.967Z,6.65
2022-08-27T04:59:10.429Z,8.55
2022-08-27T05:01:49.276Z,6.05
2022-08-27T05:04:21.837Z,6.95
2022-08-27T05:06:50.946Z,5.85
2022-08-27T05:09:24.591Z,6.07
2022-08-27T05:11:56.523Z,5.60
2022-08-27T05:14:30.095Z,5.68
2022-08-27T05:16:59.141Z,5.97
2022-08-27T05:19:28.050Z,6.13
2022-08-27T05:21:57.125Z,7.10
2022-08-27T05:24:26.534Z,5.22
2022-08-27T05:26:55.616Z,4.40
2022-08-27T05:29:36.025Z,5.13
2022-08-27T05:32:14.978Z,4.18
2022-08-27T05:34:45.872Z,4.90
2022-08-27T05:37:15.727Z,5.82
2022-08-27T05:39:46.758Z,5.00
2022-08-27T05:42:16.522Z,4.78
2022-08-27T05:44:57.275Z,4.78
2022-08-27T05:47:45.087Z,5.15
2022-08-27T05:50:14.454Z,5.15
2022-08-27T05:53:02.812Z,5.50
2022-08-27T05:56:14.014Z,4.60
2022-08-27T05:59:05.565Z,4.70
2022-08-27T06:01:53.651Z,4.10
2022-08-27T06:04:25.243Z,4.40
2022-08-27T06:06:54.316Z,5.60
2022-08-27T06:09:25.892Z,4.25
2022-08-27T06:11:57.165Z,5.05
2022-08-27T06:14:26.911Z,5.40
2022-08-27T06:16:55.737Z,4.45
2022-08-27T06:19:26.539Z,5.13
2022-08-27T06:22:00.158Z,4.30
2022-08-27T06:24:30.335Z,4.13
2022-08-27T06:27:00.078Z,5.50
2022-08-27T06:29:36.387Z,7.05
2022-08-27T06:32:07.220Z,4.50
2022-08-27T06:34:39.211Z,4.95
2022-08-27T06:37:11.519Z,4.53
2022-08-27T06:39:40.604Z,5.13
2022-08-27T06:42:11.990Z,5.50
2022-08-27T06:44:44.525Z,4.47
2022-08-27T06:47:15.904Z,7.13
2022-08-27T06:49:46.419Z,4.18
2022-08-27T06:52:18.190Z,5.68
2022-08-27T06:54:47.571Z,4.93
2022-08-27T06:57:18.679Z,6.57
2022-08-27T06:59:47.927Z,7.63
2022-08-27T07:02:16.684Z,4.22
2022-08-27T07:04:45.856Z,4.60
2022-08-27T07:07:34.512Z,5.10
2022-08-27T07:10:11.738Z,3.92
2022-08-27T07:12:40.035Z,4.53
2022-08-27T07:15:08.842Z,4.30
2022-08-27T07:17:41.934Z,4.30
2022-08-27T07:23:01.524Z,4.30
2022-08-27T07:25:42.016Z,4.85
2022-08-27T07:28:17.442Z,4.80
2022-08-27T07:30:46.584Z,6.38
2022-08-27T07:33:14.693Z,4.32
2022-08-27T07:35:46.897Z,5.15
2022-08-27T07:38:21.115Z,5.03
2022-08-27T07:40:56.789Z,3.90
2022-08-27T07:43:46.240Z,4.45
2022-08-27T07:46:14.423Z,5.15
2022-08-27T07:48:44.241Z,7.15
2022-08-27T07:51:20.205Z,3.97
2022-08-27T07:53:48.879Z,3.90
2022-08-27T07:56:18.227Z,4.13
2022-08-27T07:58:49.231Z,4.45
2022-08-27T08:01:18.239Z,4.35
2022-08-27T08:03:47.014Z,4.28
2022-08-27T08:06:16.738Z,4.63
2022-08-27T08:08:46.666Z,10.95
2022-08-27T08:11:17.646Z,4.00
2022-08-27T08:13:47.550Z,3.90
2022-08-27T08:16:27.146Z,3.90
2022-08-27T08:19:13.807Z,4.85
2022-08-27T08:22:11.101Z,3.95
2022-08-27T08:25:12.910Z,4.43
2022-08-27T08:27:58.772Z,4.25
2022-08-27T08:33:40.587Z,4.10
2022-08-27T08:36:17.055Z,4.15
2022-08-27T08:38:50.760Z,4.25
2022-08-27T08:41:39.174Z,4.45
2022-08-27T08:44:43.233Z,4.25
2022-08-27T08:47:35.602Z,4.43
2022-08-27T08:50:28.835Z,4.22
2022-08-27T08:53:20.139Z,18.33
2022-08-27T08:56:02.985Z,5.63
2022-08-27T08:59:03.269Z,4.30
2022-08-27T09:01:36.777Z,3.92
2022-08-27T09:04:10.812Z,4.03
2022-08-27T09:07:19.205Z,4.70
2022-08-27T09:10:20.361Z,3.83
2022-08-27T09:13:03.271Z,5.20
2022-08-27T09:15:36.963Z,3.80
2022-08-27T09:18:27.959Z,3.80
2022-08-27T09:21:37.780Z,4.30
2022-08-27T09:24:49.525Z,3.90
2022-08-27T09:27:36.633Z,4.18
2022-08-27T09:30:31.838Z,3.80
2022-08-27T09:33:13.835Z,7.43
2022-08-27T09:36:00.510Z,4.78
2022-08-27T09:38:35.797Z,7.05
2022-08-27T09:41:09.946Z,4.32
2022-08-27T09:43:46.949Z,4.03
2022-08-27T09:46:24.371Z,3.70
2022-08-27T09:48:57.655Z,4.38
2022-08-27T09:51:28.469Z,7.47
2022-08-27T09:54:02.188Z,3.60
2022-08-27T09:56:34.070Z,4.63
2022-08-27T09:59:25.105Z,4.35
2022-08-27T10:02:15.979Z,4.32
2022-08-27T10:04:52.078Z,4.83
2022-08-27T10:07:47.435Z,4.07
2022-08-27T10:13:31.331Z,4.20
2022-08-27T10:16:06.196Z,6.35
2022-08-27T10:18:52.318Z,5.35
2022-08-27T10:21:29.649Z,4.55
2022-08-27T10:24:17.268Z,7.25
2022-08-27T10:27:20.881Z,4.00
2022-08-27T10:29:52.643Z,4.05
2022-08-27T10:32:52.809Z,4.03
2022-08-27T10:35:47.870Z,4.30
2022-08-27T10:38:39.096Z,4.10
2022-08-27T10:41:14.105Z,4.25
2022-08-27T10:44:16.706Z,4.50
2022-08-27T10:47:27.023Z,3.95
2022-08-27T10:50:17.834Z,4.00
2022-08-27T10:53:10.514Z,3.30
2022-08-27T10:55:43.133Z,5.38
2022-08-27T10:58:34.258Z,4.25
2022-08-27T11:01:40.757Z,4.32
2022-08-27T11:04:29.126Z,4.30
2022-08-27T11:07:09.240Z,5.07
2022-08-27T11:09:51.595Z,4.90
2022-08-27T11:12:39.136Z,5.28
2022-08-27T11:15:24.299Z,8.57
2022-08-27T11:18:06.915Z,4.25
2022-08-27T11:21:15.988Z,4.35
2022-08-27T11:24:34.402Z,3.85
2022-08-27T11:27:08.489Z,3.50
2022-08-27T11:29:52.434Z,4.50
2022-08-27T11:32:49.923Z,4.75
2022-08-27T11:35:26.404Z,3.13
2022-08-27T11:38:32.400Z,3.75
2022-08-27T11:41:08.057Z,4.32
2022-08-27T11:43:37.927Z,4.05
2022-08-27T11:46:08.690Z,3.90
2022-08-27T11:48:51.410Z,3.30
2022-08-27T11:51:39.014Z,3.75
2022-08-27T11:54:27.016Z,2.90
2022-08-27T11:56:55.760Z,3.13
2022-08-27T11:59:24.297Z,3.97
2022-08-27T12:01:56.699Z,2.92
2022-08-27T12:04:34.417Z,3.47
2022-08-27T12:07:07.640Z,4.35
2022-08-27T12:09:58.656Z,3.50
2022-08-27T12:12:39.874Z,2.97
2022-08-27T12:15:27.589Z,3.28
2022-08-27T12:18:46.070Z,4.00
2022-08-27T12:21:27.382Z,3.13
2022-08-27T12:24:06.132Z,2.55
2022-08-27T12:26:38.259Z,7.20
2022-08-27T12:29:48.229Z,3.60
2022-08-27T12:32:44.624Z,4.00
2022-08-27T12:35:23.832Z,4.07
2022-08-27T12:38:37.090Z,5.13
2022-08-27T12:41:09.303Z,3.42
2022-08-27T12:43:51.341Z,3.75
2022-08-27T12:46:50.190Z,3.50
2022-08-27T12:49:38.526Z,4.27
2022-08-27T12:52:46.783Z,6.63
2022-08-27T12:58:12.264Z,3.78
2022-08-27T13:01:12.398Z,4.07
2022-08-27T13:03:50.160Z,4.45
2022-08-27T13:06:27.218Z,3.40
2022-08-27T13:09:08.531Z,3.78
2022-08-27T13:11:56.747Z,3.10
2022-08-27T13:14:26.891Z,3.20
2022-08-27T13:16:59.546Z,3.63
2022-08-27T13:19:32.196Z,3.90
2022-08-27T13:22:05.185Z,3.20
2022-08-27T13:24:47.702Z,3.30
2022-08-27T13:27:17.495Z,3.70
2022-08-27T13:29:47.242Z,4.60
2022-08-27T13:32:15.961Z,3.65
2022-08-27T13:34:46.047Z,4.10
2022-08-27T13:37:50.551Z,3.90
2022-08-27T13:40:38.022Z,3.55
2022-08-27T13:43:16.660Z,4.72
2022-08-27T13:45:57.674Z,5.22
2022-08-27T13:48:29.776Z,3.38
2022-08-27T13:51:02.235Z,3.40
2022-08-27T13:53:51.858Z,4.10
2022-08-27T13:56:34.228Z,3.20
2022-08-27T13:59:13.790Z,4.40
2022-08-27T14:02:11.216Z,3.63
2022-08-27T14:04:39.851Z,12.18
2022-08-27T14:07:33.436Z,3.53
2022-08-27T14:10:26.483Z,5.05
2022-08-27T14:13:11.339Z,3.45
2022-08-27T14:15:55.066Z,4.68
2022-08-27T14:18:57.970Z,7.03
2022-08-27T14:21:26.330Z,6.18
2022-08-27T14:23:56.442Z,4.00
2022-08-27T14:26:27.059Z,3.75
2022-08-27T14:29:01.748Z,4.43
2022-08-27T14:31:31.577Z,3.20
2022-08-27T14:33:59.818Z,4.50
2022-08-27T14:36:32.271Z,3.70
2022-08-27T14:39:02.871Z,3.78
2022-08-27T14:41:35.019Z,3.50
2022-08-27T14:44:03.862Z,4.05
2022-08-27T14:46:41.433Z,4.22
2022-08-27T14:49:17.556Z,3.92
2022-08-27T14:51:46.966Z,5.47
2022-08-27T14:54:17.466Z,11.52
2022-08-27T14:56:46.686Z,9.43
2022-08-27T14:59:16.453Z,8.10
2022-08-27T15:01:45.361Z,6.75
2022-08-27T15:04:14.013Z,6.72
2022-08-27T15:06:42.618Z,8.55
2022-08-27T15:09:11.622Z,8.75
2022-08-27T15:11:41.825Z,15.90
2022-08-27T15:14:22.407Z,8.75
2022-08-27T15:16:53.945Z,10.40
2022-08-27T15:19:30.107Z,5.75
2022-08-27T15:22:16.921Z,5.13
2022-08-27T15:24:49.223Z,14.45
2022-08-27T15:27:18.236Z,19.15
2022-08-27T15:29:56.193Z,12.75
2022-08-27T15:32:32.332Z,17.50
2022-08-27T15:35:05.943Z,8.90
2022-08-27T15:37:35.456Z,4.20
2022-08-27T15:40:06.913Z,7.85
2022-08-27T15:45:08.743Z,12.50
2022-08-27T15:47:37.930Z,11.02
2022-08-27T15:50:12.718Z,4.93
2022-08-27T15:52:46.203Z,12.93
2022-08-27T15:55:31.293Z,9.00
2022-08-27T15:58:07.260Z,5.07
2022-08-27T16:00:39.445Z,4.20
2022-08-27T16:03:11.615Z,7.57
2022-08-27T16:05:43.197Z,6.90
2022-08-27T16:08:13.295Z,7.32
2022-08-27T16:10:43.197Z,8.15
2022-08-27T16:13:13.851Z,8.27
2022-08-27T16:15:43.398Z,7.20
2022-08-27T16:18:12.674Z,5.82
2022-08-27T16:20:42.591Z,7.72
2022-08-27T16:23:16.692Z,11.57
2022-08-27T16:25:46.178Z,8.45
2022-08-27T16:28:15.322Z,5.93
2022-08-27T16:30:44.451Z,11.32
2022-08-27T16:33:15.773Z,13.52
2022-08-27T16:35:44.692Z,16.30
2022-08-27T16:38:14.660Z,11.43
2022-08-27T16:40:48.478Z,9.60
2022-08-27T16:43:21.255Z,12.48
2022-08-27T16:45:53.675Z,14.32
2022-08-27T16:48:42.495Z,14.60
2022-08-27T16:51:27.040Z,9.27
2022-08-27T16:53:55.777Z,8.35
2022-08-27T16:56:26.389Z,14.13
2022-08-27T16:58:57.791Z,7.97
2022-08-27T17:01:26.421Z,8.30
2022-08-27T17:04:09.017Z,11.90
2022-08-27T17:06:42.282Z,24.67
2022-08-27T17:09:11.827Z,10.90
2022-08-27T17:11:43.507Z,12.15
2022-08-27T17:14:12.405Z,11.80
2022-08-27T17:16:44.060Z,11.63
2022-08-27T17:19:16.897Z,9.57
2022-08-27T17:21:48.863Z,15.35
2022-08-27T17:24:18.158Z,9.90
2022-08-27T17:26:47.097Z,11.82
2022-08-27T17:29:15.286Z,9.25
2022-08-27T17:31:44.631Z,6.85
2022-08-27T17:34:21.389Z,6.60
2022-08-27T17:36:55.167Z,11.32
2022-08-27T17:39:24.210Z,11.30
2022-08-27T17:41:56.220Z,6.57
2022-08-27T17:44:28.826Z,7.15
2022-08-27T17:47:03.121Z,11.05
2022-08-27T17:49:32.316Z,6.90
2022-08-27T17:54:54.031Z,7.68
2022-08-27T17:57:44.473Z,8.35
2022-08-27T18:00:15.001Z,12.20
2022-08-27T18:02:46.149Z,7.78
2022-08-27T18:05:16.604Z,9.02
2022-08-27T18:08:01.211Z,8.32
2022-08-27T18:10:37.510Z,8.98
2022-08-27T18:13:09.230Z,16.25
2022-08-27T18:15:43.017Z,11.75
2022-08-27T18:18:12.671Z,16.58
2022-08-27T18:20:42.692Z,9.52
2022-08-27T18:23:11.866Z,11.40
2022-08-27T18:25:44.883Z,20.30
2022-08-27T18:28:14.339Z,11.50
2022-08-27T18:30:44.416Z,9.30
2022-08-27T18:33:15.458Z,9.57
2022-08-27T18:35:53.540Z,9.18
2022-08-27T18:38:22.132Z,11.45
2022-08-27T18:40:52.593Z,9.50
2022-08-27T18:43:42.220Z,14.07
2022-08-27T18:46:12.241Z,18.05
2022-08-27T18:48:40.959Z,14.10
2022-08-27T18:51:14.733Z,16.88
2022-08-27T18:53:44.495Z,12.55
2022-08-27T18:56:16.872Z,15.73
2022-08-27T18:58:45.820Z,16.10
2022-08-27T19:01:17.262Z,15.48
2022-08-27T19:03:50.114Z,12.73
2022-08-27T19:06:20.894Z,13.63
2022-08-27T19:08:50.808Z,15.20
2022-08-27T19:11:19.887Z,13.43
2022-08-27T19:13:50.706Z,13.57
2022-08-27T19:16:25.209Z,14.82
2022-08-27T19:18:54.460Z,17.00
2022-08-27T19:21:22.619Z,14.27
2022-08-27T19:23:54.164Z,14.77
2022-08-27T19:26:25.808Z,13.95
2022-08-27T19:28:54.266Z,15.10
2022-08-27T19:31:24.587Z,15.43
2022-08-27T19:33:55.142Z,14.27
2022-08-27T19:36:27.170Z,15.43
2022-08-27T19:38:59.815Z,17.97
2022-08-27T19:41:31.345Z,14.85
2022-08-27T19:44:06.122Z,18.55
2022-08-27T19:52:33.958Z,13.90
2022-08-27T19:55:14.443Z,11.95
2022-08-27T19:57:44.398Z,16.08
2022-08-27T20:00:20.671Z,11.90
2022-08-27T20:02:51.405Z,12.70
2022-08-27T20:05:21.367Z,11.05
2022-08-27T20:10:48.984Z,11.57
2022-08-27T20:13:17.626Z,12.65
2022-08-27T20:15:51.137Z,10.95
2022-08-27T20:18:23.407Z,11.18
2022-08-27T20:20:52.910Z,12.00
2022-08-27T20:23:25.336Z,11.32
2022-08-27T20:26:01.076Z,11.52
2022-08-27T20:28:39.365Z,11.20
2022-08-27T20:31:19.184Z,11.05
2022-08-27T20:33:49.217Z,12.32
2022-08-27T20:36:26.781Z,15.95
2022-08-27T20:38:55.300Z,16.08
2022-08-27T20:41:25.345Z,17.27
2022-08-27T20:44:01.326Z,13.98
2022-08-27T20:46:32.251Z,14.07
2022-08-27T20:49:03.132Z,12.40
2022-08-27T20:51:51.144Z,12.02
2022-08-27T20:54:26.072Z,11.88
2022-08-27T20:56:59.143Z,11.15
2022-08-27T20:59:46.546Z,10.80
2022-08-27T21:02:17.225Z,10.27
2022-08-27T21:04:47.244Z,10.27
2022-08-27T21:07:17.075Z,10.60
2022-08-27T21:09:57.623Z,15.60
2022-08-27T21:12:27.911Z,11.00
2022-08-27T21:15:21.413Z,13.88
2022-08-27T21:17:50.389Z,12.82
2022-08-27T21:20:24.206Z,10.95
2022-08-27T21:22:54.284Z,11.02
2022-08-27T21:25:26.025Z,10.05
2022-08-27T21:27:58.483Z,18.85
2022-08-27T21:30:29.715Z,10.73
2022-08-27T21:33:01.661Z,11.63
2022-08-27T21:35:31.427Z,10.50
2022-08-27T21:38:06.882Z,13.70
2022-08-27T21:40:35.570Z,10.52
2022-08-27T21:43:04.582Z,10.20
2022-08-27T21:45:34.895Z,13.52
2022-08-27T21:48:05.196Z,12.93
2022-08-27T21:50:37.415Z,12.38
2022-08-27T21:53:07.567Z,11.07
2022-08-27T21:55:36.044Z,7.72
2022-08-27T21:58:05.592Z,9.32
2022-08-27T22:00:38.263Z,7.65
2022-08-27T22:03:10.204Z,8.02
2022-08-27T22:05:41.617Z,7.53
2022-08-27T22:08:11.936Z,8.13
2022-08-27T22:10:41.956Z,8.05
2022-08-27T22:13:10.375Z,8.68
2022-08-27T22:15:39.532Z,8.98
2022-08-27T22:18:08.446Z,9.02
2022-08-27T22:20:43.380Z,8.57
2022-08-27T22:23:13.386Z,9.57
2022-08-27T22:25:43.886Z,7.65
2022-08-27T22:28:15.041Z,8.70
2022-08-27T22:30:49.484Z,10.48
2022-08-27T22:33:18.993Z,9.10
2022-08-27T22:35:47.686Z,9.18
2022-08-27T22:38:17.218Z,9.25
2022-08-27T22:40:45.594Z,7.65
2022-08-27T22:43:17.124Z,8.38
2022-08-27T22:45:46.727Z,8.10
2022-08-27T22:48:15.238Z,7.60
2022-08-27T22:50:44.852Z,7.43
2022-08-27T22:53:13.188Z,7.75
2022-08-27T22:55:44.662Z,7.65
2022-08-27T22:58:16.494Z,7.35
2022-08-27T23:00:52.099Z,7.97
2022-08-27T23:03:22.191Z,9.00
2022-08-27T23:05:55.387Z,6.80
2022-08-27T23:08:25.204Z,6.93
2022-08-27T23:10:54.847Z,7.15
2022-08-27T23:13:23.901Z,7.38
2022-08-27T23:15:53.701Z,7.90
2022-08-27T23:18:22.361Z,7.68
2022-08-27T23:20:51.130Z,7.45
2022-08-27T23:23:20.525Z,9.65
2022-08-27T23:26:09.827Z,7.55
2022-08-27T23:28:38.796Z,8.40
2022-08-27T23:31:07.661Z,7.00
2022-08-27T23:33:38.091Z,6.00
2022-08-27T23:36:09.037Z,6.57
2022-08-27T23:38:37.595Z,7.30
2022-08-27T23:41:06.158Z,14.18
2022-08-27T23:43:34.265Z,8.45
2022-08-27T23:46:02.889Z,8.13
2022-08-27T23:48:33.801Z,9.32
2022-08-27T23:51:03.730Z,6.60
2022-08-27T23:53:32.158Z,7.65
2022-08-27T23:56:02.124Z,7.97
2022-08-27T23:58:32.991Z,7.40
